Terminal Aerodrome Forecast
Issued by NWS

Home | Current Version | Previous Version | Text Only | Print | Product List | Glossary On
Versions: 1 2 3 4 5 6 7 8 9 10 11 12 13 14 15 16 17 18 19 20 21 22 23 24 25 26 27 28 29 30 31 32 33 34 35 36 37 38 39 40 41 42 43 44 45 46 47 48 49 50
836
FTUS43 KLOT 211728
TAFORD
TAF
KORD 211728Z 2118/2224 22015G25KT P6SM VCSH SCT025 OVC080
     FM212200 21015G25KT 5SM -SHRA BR VCTS SCT025 OVC040CB
      TEMPO 2122/2201 3SM SHRA BR BKN025
     FM220200 21012G22KT P6SM VCSH SCT020 BKN035
     FM220800 19012G20KT 4SM SHRA BR VCTS BKN025 OVC040CB PROB30
      2209/2214 2SM +TSRA BR BKN008 OVC015CB
     FM221500 21014G24KT 5SM SHRA BR BKN020 OVC035
     FM221800 22010KT 4SM -SHRA BR OVC015 PROB30 2218/2224 2SM TSRA
      BR OVC012CB=

USA.gov is the U.S. government's official web portal to all federal, state and local government web resources and services.